Time;durP1;ratioP1;P1;durP2;ratioP2;P2;SDS_P1;SDS_P2;PMS_P1;PMS_P2;Temp;Humidity;BMP_temperature;BMP_pressure;BME280_temperature;BME280_humidity;BME280_pressure;Samples;Min_cycle;Max_cycle;Signal;HPM_P1;HPM_P2
2023/11/25 00:01:25;;;;;;;2.85;1.52;;;;;;;;;;4943548;29;20812;-64
2023/11/25 00:03:55;;;;;;;6.22;1.33;;;;;;;;;;4942802;29;20209;-65
2023/11/25 00:06:23;;;;;;;2.60;1.42;;;;;;;;;;4943354;29;20715;-66
2023/11/25 00:08:52;;;;;;;2.67;1.92;;;;;;;;;;4943866;29;20305;-64
2023/11/25 00:11:21;;;;;;;4.35;1.17;;;;;;;;;;4943911;29;20738;-64
2023/11/25 00:13:50;;;;;;;4.88;1.20;;;;;;;;;;4943101;29;20224;-64
2023/11/25 00:16:18;;;;;;;2.33;1.55;;;;;;;;;;4944333;29;20320;-64
2023/11/25 00:18:46;;;;;;;3.80;1.38;;;;;;;;;;4943587;29;20279;-63
2023/11/25 00:21:16;;;;;;;3.22;1.73;;;;;;;;;;4944123;29;20349;-64
2023/11/25 00:23:44;;;;;;;2.30;1.35;;;;;;;;;;4943492;29;20628;-64
2023/11/25 00:26:12;;;;;;;2.72;1.30;;;;;;;;;;4944126;29;20701;-65
2023/11/25 00:28:46;;;;;;;4.65;1.40;;;;;;;;;;4925966;29;20189;-64
2023/11/25 00:31:15;;;;;;;2.70;1.15;;;;;;;;;;4944410;29;20299;-64
2023/11/25 00:33:43;;;;;;;2.28;1.25;;;;;;;;;;4949235;29;20259;-69
2023/11/25 00:36:12;;;;;;;1.02;0.95;;;;;;;;;;4942168;29;20252;-64
2023/11/25 00:38:42;;;;;;;4.18;1.40;;;;;;;;;;4926234;29;20649;-62
2023/11/25 00:41:11;;;;;;;7.10;1.30;;;;;;;;;;4944025;29;20244;-65
2023/11/25 00:43:39;;;;;;;4.32;1.45;;;;;;;;;;4941598;29;20307;-63
2023/11/25 00:46:07;;;;;;;6.90;1.55;;;;;;;;;;4927002;29;20287;-64
2023/11/25 00:48:36;;;;;;;3.47;1.40;;;;;;;;;;4943687;29;20296;-63
2023/11/25 00:51:04;;;;;;;6.25;1.58;;;;;;;;;;4934573;29;20276;-64
2023/11/25 00:53:33;;;;;;;6.55;1.50;;;;;;;;;;4944108;29;20287;-64
2023/11/25 00:56:03;;;;;;;2.45;1.42;;;;;;;;;;4911501;29;20261;-63
2023/11/25 00:58:32;;;;;;;2.90;1.13;;;;;;;;;;4927422;29;20727;-64
2023/11/25 01:01:00;;;;;;;7.85;2.30;;;;;;;;;;4923993;29;20712;-64
2023/11/25 01:03:28;;;;;;;2.55;1.40;;;;;;;;;;4934021;29;20260;-67
2023/11/25 01:05:59;;;;;;;1.35;1.02;;;;;;;;;;4919751;29;20571;-71
2023/11/25 01:08:29;;;;;;;2.10;1.20;;;;;;;;;;4939380;29;20192;-71
2023/11/25 01:10:57;;;;;;;5.10;1.45;;;;;;;;;;4920883;29;20235;-70
2023/11/25 01:13:28;;;;;;;1.83;1.63;;;;;;;;;;4920017;29;20232;-71
2023/11/25 01:15:57;;;;;;;3.53;1.52;;;;;;;;;;4936955;29;20590;-70
2023/11/25 01:18:25;;;;;;;4.35;2.20;;;;;;;;;;4934603;29;20215;-71
2023/11/25 01:20:55;;;;;;;3.20;1.42;;;;;;;;;;4937506;29;20197;-71
2023/11/25 01:23:23;;;;;;;6.40;1.90;;;;;;;;;;4920314;29;20205;-71
2023/11/25 01:25:51;;;;;;;2.50;1.20;;;;;;;;;;4937573;29;20591;-71
2023/11/25 01:28:19;;;;;;;4.03;1.20;;;;;;;;;;4936870;29;20205;-70
2023/11/25 01:30:49;;;;;;;9.90;1.95;;;;;;;;;;4937315;29;20224;-71
2023/11/25 01:33:17;;;;;;;4.70;1.30;;;;;;;;;;4940042;29;20207;-66
2023/11/25 01:35:46;;;;;;;4.50;1.30;;;;;;;;;;4933829;29;20247;-67
2023/11/25 01:38:15;;;;;;;7.57;2.05;;;;;;;;;;4936554;29;20619;-67
2023/11/25 01:40:43;;;;;;;8.13;1.40;;;;;;;;;;4936279;29;20201;-67
2023/11/25 01:43:14;;;;;;;2.70;1.27;;;;;;;;;;4942618;29;20669;-67
2023/11/25 01:45:42;;;;;;;3.20;1.20;;;;;;;;;;4933905;29;20215;-67
2023/11/25 01:48:12;;;;;;;1.33;1.20;;;;;;;;;;4936782;29;20227;-67
2023/11/25 01:50:41;;;;;;;5.07;2.20;;;;;;;;;;4951144;29;20611;-67
2023/11/25 01:53:10;;;;;;;2.28;1.70;;;;;;;;;;4936257;29;20660;-67
2023/11/25 01:55:38;;;;;;;7.30;1.77;;;;;;;;;;4936251;29;20215;-67
2023/11/25 01:58:06;;;;;;;7.05;1.10;;;;;;;;;;4904138;29;20209;-67
2023/11/25 02:00:37;;;;;;;6.45;1.70;;;;;;;;;;4947002;29;20207;-70
2023/11/25 02:03:06;;;;;;;5.15;1.73;;;;;;;;;;4935614;29;20200;-71
2023/11/25 02:05:35;;;;;;;4.75;1.60;;;;;;;;;;4923826;29;20204;-64
2023/11/25 02:08:04;;;;;;;5.20;1.67;;;;;;;;;;4928975;29;20280;-65
2023/11/25 02:10:33;;;;;;;4.30;1.70;;;;;;;;;;4929877;29;20299;-64
2023/11/25 02:13:08;;;;;;;1.70;1.10;;;;;;;;;;4945286;29;20295;-64
2023/11/25 02:15:36;;;;;;;3.83;1.30;;;;;;;;;;4942354;29;20256;-68
2023/11/25 02:18:04;;;;;;;3.40;1.50;;;;;;;;;;4954071;28;20201;-65
2023/11/25 02:20:35;;;;;;;5.63;1.50;;;;;;;;;;4940341;29;20203;-65
2023/11/25 02:23:27;;;;;;;3.95;1.27;;;;;;;;;;4922923;29;20566;-66
2023/11/25 02:25:55;;;;;;;1.55;1.40;;;;;;;;;;4933543;29;20211;-64
2023/11/25 02:28:23;;;;;;;6.22;1.80;;;;;;;;;;4922543;29;20580;-65
2023/11/25 02:30:52;;;;;;;9.55;1.63;;;;;;;;;;4939900;29;20231;-65
2023/11/25 02:33:21;;;;;;;4.32;1.27;;;;;;;;;;4922778;29;20204;-65
2023/11/25 02:35:52;;;;;;;2.42;1.50;;;;;;;;;;4939699;29;20652;-66
2023/11/25 02:38:21;;;;;;;3.42;1.17;;;;;;;;;;4939790;29;20284;-67
2023/11/25 02:40:50;;;;;;;5.97;1.77;;;;;;;;;;4939531;29;20261;-64
2023/11/25 02:43:18;;;;;;;4.55;1.88;;;;;;;;;;4938224;29;20224;-65
2023/11/25 02:45:48;;;;;;;3.38;1.33;;;;;;;;;;4920066;29;20216;-65
2023/11/25 02:48:16;;;;;;;9.20;2.42;;;;;;;;;;4939791;29;20212;-64
2023/11/25 02:50:45;;;;;;;3.95;2.65;;;;;;;;;;4939678;29;20633;-64
2023/11/25 02:53:13;;;;;;;2.85;2.10;;;;;;;;;;4922512;29;20634;-64
2023/11/25 02:55:44;;;;;;;3.65;3.13;;;;;;;;;;4922877;29;20204;-64
2023/11/25 02:58:13;;;;;;;16.13;8.02;;;;;;;;;;4939512;29;20218;-66
2023/11/25 03:00:43;;;;;;;15.70;8.05;;;;;;;;;;4950415;29;20208;-65
2023/11/25 03:03:16;;;;;;;5.93;2.65;;;;;;;;;;4941682;28;20219;-65
2023/11/25 03:05:47;;;;;;;7.57;2.28;;;;;;;;;;4938844;29;20207;-65
2023/11/25 03:08:17;;;;;;;5.03;1.90;;;;;;;;;;4939280;29;20196;-65
2023/11/25 03:10:50;;;;;;;8.07;2.72;;;;;;;;;;4939424;29;20602;-65
2023/11/25 03:13:22;;;;;;;7.20;3.58;;;;;;;;;;4922014;29;20244;-65
2023/11/25 03:15:53;;;;;;;9.93;5.30;;;;;;;;;;4907117;29;20194;-65
2023/11/25 03:18:22;;;;;;;5.35;4.47;;;;;;;;;;4937420;29;20196;-67
2023/11/25 03:20:50;;;;;;;6.43;2.17;;;;;;;;;;4935412;29;20200;-67
2023/11/25 03:23:19;;;;;;;13.90;2.45;;;;;;;;;;4917621;29;20203;-67
2023/11/25 03:25:47;;;;;;;5.00;1.58;;;;;;;;;;4901234;29;20209;-67
2023/11/25 03:28:17;;;;;;;3.30;1.70;;;;;;;;;;4933902;29;20223;-67
2023/11/25 03:30:46;;;;;;;7.78;2.30;;;;;;;;;;4934783;29;20208;-66
2023/11/25 03:33:14;;;;;;;1.85;1.45;;;;;;;;;;4902425;29;20200;-66
2023/11/25 03:35:42;;;;;;;7.03;2.08;;;;;;;;;;4934737;29;20255;-66
2023/11/25 03:38:10;;;;;;;9.05;3.40;;;;;;;;;;4934512;29;20201;-66
2023/11/25 03:40:39;;;;;;;2.28;1.30;;;;;;;;;;4936506;29;20208;-66
2023/11/25 03:43:08;;;;;;;5.82;2.55;;;;;;;;;;4939539;29;20205;-66
2023/11/25 03:45:38;;;;;;;5.95;1.58;;;;;;;;;;4929063;29;20287;-66
2023/11/25 03:48:06;;;;;;;3.00;1.40;;;;;;;;;;4943799;29;20449;-68
2023/11/25 03:50:35;;;;;;;3.25;1.45;;;;;;;;;;4943429;29;20699;-64
2023/11/25 03:53:05;;;;;;;3.03;1.52;;;;;;;;;;4944217;29;20296;-63
2023/11/25 03:55:33;;;;;;;5.75;2.50;;;;;;;;;;4927027;29;20291;-63
2023/11/25 03:58:03;;;;;;;5.47;1.70;;;;;;;;;;4927461;29;20260;-64
2023/11/25 04:00:33;;;;;;;6.78;1.58;;;;;;;;;;4955126;29;20325;-64
2023/11/25 04:03:03;;;;;;;3.55;1.10;;;;;;;;;;4941942;29;20265;-64
2023/11/25 04:05:31;;;;;;;3.25;1.60;;;;;;;;;;4943420;29;20293;-64
2023/11/25 04:07:59;;;;;;;8.00;1.80;;;;;;;;;;4926234;29;20256;-64
2023/11/25 04:10:28;;;;;;;8.35;1.67;;;;;;;;;;4943747;29;20671;-64
2023/11/25 04:12:56;;;;;;;1.13;1.02;;;;;;;;;;4943172;29;20319;-64
2023/11/25 04:15:24;;;;;;;3.63;1.80;;;;;;;;;;4924544;29;20277;-64
2023/11/25 04:17:53;;;;;;;1.35;1.25;;;;;;;;;;4940351;29;20355;-68
2023/11/25 04:20:28;;;;;;;3.42;2.30;;;;;;;;;;4944318;29;20732;-64
2023/11/25 04:22:56;;;;;;;1.70;1.40;;;;;;;;;;4942671;29;20180;-65
2023/11/25 04:25:24;;;;;;;3.83;1.70;;;;;;;;;;4943461;29;20256;-63
2023/11/25 04:27:53;;;;;;;4.43;1.63;;;;;;;;;;4942264;29;20279;-64
2023/11/25 04:30:22;;;;;;;2.20;1.50;;;;;;;;;;4942457;29;20261;-63
2023/11/25 04:32:51;;;;;;;4.82;1.45;;;;;;;;;;4943204;29;20650;-64
2023/11/25 04:35:19;;;;;;;3.10;1.38;;;;;;;;;;4945359;29;20259;-64
2023/11/25 04:37:49;;;;;;;2.65;1.42;;;;;;;;;;4949459;29;20303;-64
2023/11/25 04:40:18;;;;;;;3.55;1.60;;;;;;;;;;4949762;29;20295;-64
2023/11/25 04:42:46;;;;;;;4.32;1.30;;;;;;;;;;4949560;29;20275;-63
2023/11/25 04:45:16;;;;;;;6.65;1.75;;;;;;;;;;4945257;29;20745;-63
2023/11/25 04:47:45;;;;;;;7.95;1.60;;;;;;;;;;4952565;28;20288;-63
2023/11/25 04:50:13;;;;;;;2.08;1.50;;;;;;;;;;4948710;29;20293;-64
2023/11/25 04:52:42;;;;;;;4.78;1.30;;;;;;;;;;4948686;29;20302;-64
2023/11/25 04:55:12;;;;;;;3.65;1.48;;;;;;;;;;4946324;29;20280;-64
2023/11/25 04:57:40;;;;;;;2.90;1.58;;;;;;;;;;4950041;29;20255;-64
2023/11/25 05:00:10;;;;;;;2.38;1.40;;;;;;;;;;4915733;29;20292;-63
2023/11/25 05:02:38;;;;;;;1.20;1.10;;;;;;;;;;4948625;29;20264;-64
2023/11/25 05:05:07;;;;;;;3.40;1.30;;;;;;;;;;4931776;29;20260;-65
2023/11/25 05:07:36;;;;;;;6.28;1.55;;;;;;;;;;4949006;29;20288;-64
2023/11/25 05:10:06;;;;;;;4.18;1.55;;;;;;;;;;4949201;29;20287;-63
2023/11/25 05:12:36;;;;;;;3.55;1.33;;;;;;;;;;4948484;29;20295;-65
2023/11/25 05:15:04;;;;;;;1.70;1.35;;;;;;;;;;4948647;29;20272;-64
2023/11/25 05:17:33;;;;;;;3.35;1.00;;;;;;;;;;4961576;29;20626;-64
2023/11/25 05:20:03;;;;;;;3.75;1.55;;;;;;;;;;4950720;28;20228;-64
2023/11/25 05:22:32;;;;;;;4.40;1.27;;;;;;;;;;4949245;29;20279;-64
2023/11/25 05:25:00;;;;;;;3.50;1.20;;;;;;;;;;4949703;29;20204;-64
2023/11/25 05:27:32;;;;;;;3.40;1.17;;;;;;;;;;4933210;29;20367;-64
2023/11/25 05:30:02;;;;;;;8.90;1.58;;;;;;;;;;4948774;29;20267;-64
2023/11/25 05:32:30;;;;;;;5.72;1.40;;;;;;;;;;4948891;29;20302;-63
2023/11/25 05:34:59;;;;;;;3.75;1.50;;;;;;;;;;4948727;29;20659;-64
2023/11/25 05:37:27;;;;;;;4.78;1.70;;;;;;;;;;4931749;29;20288;-65
2023/11/25 05:39:56;;;;;;;2.42;1.10;;;;;;;;;;4948721;29;20260;-64
2023/11/25 05:42:27;;;;;;;3.97;1.10;;;;;;;;;;4948631;29;20279;-63
2023/11/25 05:44:55;;;;;;;2.65;1.33;;;;;;;;;;4946702;29;20280;-63
2023/11/25 05:47:25;;;;;;;7.20;1.35;;;;;;;;;;4945056;29;20300;-64
2023/11/25 05:49:53;;;;;;;2.67;1.52;;;;;;;;;;4946231;29;20260;-64
2023/11/25 05:52:22;;;;;;;8.05;1.42;;;;;;;;;;4928299;29;20651;-63
2023/11/25 05:54:51;;;;;;;1.98;0.98;;;;;;;;;;4945655;29;20330;-63
2023/11/25 05:57:19;;;;;;;1.70;0.98;;;;;;;;;;4946085;29;20284;-64
2023/11/25 05:59:47;;;;;;;4.10;1.50;;;;;;;;;;4944934;29;20260;-64
2023/11/25 06:02:15;;;;;;;3.05;1.10;;;;;;;;;;4944857;29;20321;-64
2023/11/25 06:04:45;;;;;;;2.33;1.50;;;;;;;;;;4945201;29;20228;-63
2023/11/25 06:07:14;;;;;;;4.30;1.40;;;;;;;;;;4950169;29;20280;-64
2023/11/25 06:09:42;;;;;;;1.10;1.00;;;;;;;;;;4945537;29;20257;-64
2023/11/25 06:12:11;;;;;;;3.45;1.38;;;;;;;;;;4928021;29;20280;-64
2023/11/25 06:14:39;;;;;;;3.85;1.30;;;;;;;;;;4943954;29;20329;-64
2023/11/25 06:17:08;;;;;;;4.20;1.52;;;;;;;;;;4944204;29;20283;-64
2023/11/25 06:19:36;;;;;;;5.97;1.20;;;;;;;;;;4945146;29;20312;-69
2023/11/25 06:22:07;;;;;;;5.97;2.75;;;;;;;;;;4946367;29;20284;-64
2023/11/25 06:24:35;;;;;;;2.00;1.10;;;;;;;;;;4928601;29;20252;-64
2023/11/25 06:27:03;;;;;;;4.18;2.97;;;;;;;;;;4944875;29;20294;-64
2023/11/25 06:29:31;;;;;;;5.05;1.67;;;;;;;;;;4945644;29;20276;-64
2023/11/25 06:31:59;;;;;;;4.60;1.70;;;;;;;;;;4928712;29;20256;-64
2023/11/25 06:34:28;;;;;;;7.05;1.65;;;;;;;;;;4959618;28;20324;-65
2023/11/25 06:36:56;;;;;;;3.45;1.40;;;;;;;;;;4935889;29;20205;-64
2023/11/25 06:39:31;;;;;;;3.70;1.30;;;;;;;;;;4938169;29;20284;-64
2023/11/25 06:42:00;;;;;;;3.30;1.25;;;;;;;;;;4942905;29;20264;-65
2023/11/25 06:44:29;;;;;;;12.77;6.60;;;;;;;;;;4938158;29;20309;-64
2023/11/25 06:46:58;;;;;;;35.42;20.77;;;;;;;;;;4943927;29;20286;-65
2023/11/25 06:49:26;;;;;;;5.40;2.75;;;;;;;;;;4943125;29;20291;-64
2023/11/25 06:51:54;;;;;;;4.75;1.88;;;;;;;;;;4945780;29;20708;-64
2023/11/25 06:54:23;;;;;;;4.68;1.35;;;;;;;;;;4944411;29;20272;-65
2023/11/25 06:56:53;;;;;;;4.15;1.10;;;;;;;;;;4943434;29;20287;-64
2023/11/25 06:59:21;;;;;;;4.55;1.40;;;;;;;;;;4952867;29;20606;-64
2023/11/25 07:01:50;;;;;;;6.18;1.35;;;;;;;;;;4945991;29;20298;-65
2023/11/25 07:04:18;;;;;;;3.30;1.13;;;;;;;;;;4940256;29;20292;-64
2023/11/25 07:06:46;;;;;;;4.63;1.23;;;;;;;;;;4944271;29;20289;-64
2023/11/25 07:09:14;;;;;;;2.75;1.40;;;;;;;;;;4938613;29;20292;-64
2023/11/25 07:11:43;;;;;;;3.78;1.40;;;;;;;;;;4940209;29;20715;-64
2023/11/25 07:14:13;;;;;;;5.65;2.10;;;;;;;;;;4933579;29;20263;-64
2023/11/25 07:16:41;;;;;;;3.67;1.80;;;;;;;;;;4940430;29;20287;-64
2023/11/25 07:19:09;;;;;;;3.13;1.40;;;;;;;;;;4934655;29;20259;-65
2023/11/25 07:21:37;;;;;;;2.45;1.60;;;;;;;;;;4929326;29;20261;-66
2023/11/25 07:24:07;;;;;;;4.65;1.60;;;;;;;;;;4945350;29;20253;-67
2023/11/25 07:26:41;;;;;;;2.13;1.50;;;;;;;;;;4938993;29;20290;-64
2023/11/25 07:29:10;;;;;;;10.77;2.25;;;;;;;;;;4959168;28;20268;-65
2023/11/25 07:31:40;;;;;;;12.20;2.08;;;;;;;;;;4945222;29;20264;-64
2023/11/25 07:34:08;;;;;;;5.38;2.88;;;;;;;;;;4950465;29;20304;-64
2023/11/25 07:36:38;;;;;;;7.05;2.25;;;;;;;;;;4935005;29;20292;-67
2023/11/25 07:39:06;;;;;;;15.23;5.20;;;;;;;;;;4949958;29;20292;-67
2023/11/25 07:41:35;;;;;;;18.25;2.08;;;;;;;;;;4944487;29;20671;-64
2023/11/25 07:44:03;;;;;;;7.63;2.45;;;;;;;;;;4941428;29;20308;-64
2023/11/25 07:46:31;;;;;;;5.97;2.65;;;;;;;;;;4940366;29;20288;-64
2023/11/25 07:49:02;;;;;;;2.08;1.88;;;;;;;;;;4943952;29;20260;-63
2023/11/25 07:51:31;;;;;;;3.63;1.52;;;;;;;;;;4943825;29;20283;-63
2023/11/25 07:53:59;;;;;;;4.13;2.45;;;;;;;;;;4946096;29;20312;-64
2023/11/25 07:56:27;;;;;;;5.13;3.35;;;;;;;;;;4958156;28;20287;-63
2023/11/25 07:58:55;;;;;;;6.30;3.88;;;;;;;;;;4943412;29;20264;-63
2023/11/25 08:01:24;;;;;;;7.63;2.40;;;;;;;;;;4942432;29;20279;-65
2023/11/25 08:03:52;;;;;;;6.00;2.85;;;;;;;;;;4942986;29;20256;-64
2023/11/25 08:06:25;;;;;;;7.90;2.83;;;;;;;;;;4943075;29;20294;-63
2023/11/25 08:08:53;;;;;;;4.57;2.20;;;;;;;;;;4925072;29;20252;-63
2023/11/25 08:11:25;;;;;;;4.78;3.00;;;;;;;;;;4941315;29;20268;-64
2023/11/25 08:13:53;;;;;;;9.18;2.50;;;;;;;;;;4937937;29;20319;-64
2023/11/25 08:16:21;;;;;;;5.78;4.60;;;;;;;;;;4941571;29;20260;-65
2023/11/25 08:18:50;;;;;;;11.35;4.22;;;;;;;;;;4942521;29;20252;-64
2023/11/25 08:21:19;;;;;;;7.50;3.15;;;;;;;;;;4938968;29;20319;-69
2023/11/25 08:23:48;;;;;;;11.25;3.45;;;;;;;;;;4915416;29;20195;-71
2023/11/25 08:26:20;;;;;;;6.78;2.97;;;;;;;;;;4935824;29;20603;-70
2023/11/25 08:28:51;;;;;;;11.25;2.55;;;;;;;;;;4931668;29;20203;-70
2023/11/25 08:31:19;;;;;;;11.70;3.30;;;;;;;;;;4933288;29;20219;-70
2023/11/25 08:33:48;;;;;;;9.05;3.80;;;;;;;;;;4933681;29;20224;-71
2023/11/25 08:36:17;;;;;;;4.85;3.30;;;;;;;;;;4932851;29;20209;-71
2023/11/25 08:38:46;;;;;;;16.42;4.75;;;;;;;;;;4933639;29;20205;-71
2023/11/25 08:41:16;;;;;;;5.40;1.90;;;;;;;;;;4918016;29;20205;-71
2023/11/25 08:43:45;;;;;;;5.97;2.83;;;;;;;;;;4932640;29;20221;-69
2023/11/25 08:46:15;;;;;;;9.30;2.88;;;;;;;;;;4915980;29;20566;-70
2023/11/25 08:48:43;;;;;;;14.73;7.55;;;;;;;;;;4937970;29;20219;-71
2023/11/25 08:51:14;;;;;;;9.02;3.00;;;;;;;;;;4933915;29;20286;-71
2023/11/25 08:53:44;;;;;;;7.57;3.75;;;;;;;;;;4943338;29;20216;-70
2023/11/25 08:56:13;;;;;;;27.80;4.45;;;;;;;;;;4939565;29;20204;-70
2023/11/25 08:58:42;;;;;;;9.70;4.03;;;;;;;;;;4934059;29;20204;-71
2023/11/25 09:01:11;;;;;;;6.07;3.20;;;;;;;;;;4936784;29;20201;-71
2023/11/25 09:03:40;;;;;;;9.73;3.42;;;;;;;;;;4933879;29;20197;-69
2023/11/25 09:06:08;;;;;;;8.32;4.32;;;;;;;;;;4932460;29;20217;-70
2023/11/25 09:08:36;;;;;;;11.77;4.22;;;;;;;;;;4930646;29;20212;-67
2023/11/25 09:11:04;;;;;;;9.10;3.38;;;;;;;;;;4935920;29;20201;-70
2023/11/25 09:13:33;;;;;;;4.85;3.13;;;;;;;;;;4935452;29;20708;-70
2023/11/25 09:16:03;;;;;;;9.95;3.28;;;;;;;;;;4934851;29;20196;-70
2023/11/25 09:18:32;;;;;;;11.77;3.10;;;;;;;;;;4916127;29;20205;-71
2023/11/25 09:21:00;;;;;;;10.88;2.95;;;;;;;;;;4936285;29;20204;-70
2023/11/25 09:23:28;;;;;;;8.98;2.97;;;;;;;;;;4936841;29;20554;-70
2023/11/25 09:25:57;;;;;;;7.07;3.17;;;;;;;;;;4937136;29;20865;-70
2023/11/25 09:28:25;;;;;;;11.15;3.80;;;;;;;;;;4955970;28;20263;-70
2023/11/25 09:30:53;;;;;;;8.82;2.72;;;;;;;;;;4934515;29;20204;-69
2023/11/25 09:33:22;;;;;;;10.70;2.28;;;;;;;;;;4936787;29;20200;-71
2023/11/25 09:35:51;;;;;;;10.60;2.45;;;;;;;;;;4936705;29;20213;-70
2023/11/25 09:38:19;;;;;;;12.52;6.47;;;;;;;;;;4919165;29;20205;-71
2023/11/25 09:40:47;;;;;;;16.20;4.75;;;;;;;;;;4942876;29;20208;-67
2023/11/25 09:43:17;;;;;;;10.82;3.20;;;;;;;;;;4945557;28;20203;-70
2023/11/25 09:45:46;;;;;;;11.95;4.18;;;;;;;;;;4943104;29;20264;-70
2023/11/25 09:48:14;;;;;;;9.02;3.63;;;;;;;;;;4943056;29;20204;-70
2023/11/25 09:50:44;;;;;;;12.48;3.40;;;;;;;;;;4945156;28;20200;-70
2023/11/25 09:53:15;;;;;;;9.32;3.10;;;;;;;;;;4942710;29;20207;-70
2023/11/25 09:55:48;;;;;;;13.70;3.30;;;;;;;;;;4927963;29;20220;-70
2023/11/25 09:58:17;;;;;;;14.65;2.70;;;;;;;;;;4945943;29;20214;-70
2023/11/25 10:00:46;;;;;;;12.93;3.35;;;;;;;;;;4946437;29;20200;-70
2023/11/25 10:03:14;;;;;;;13.02;3.45;;;;;;;;;;4939704;29;20209;-70
2023/11/25 10:05:44;;;;;;;12.80;3.10;;;;;;;;;;4933747;29;20685;-68
2023/11/25 10:08:12;;;;;;;12.38;3.78;;;;;;;;;;4934887;29;20235;-70
2023/11/25 10:10:41;;;;;;;9.48;4.30;;;;;;;;;;4935493;29;20560;-69
2023/11/25 10:13:14;;;;;;;9.80;5.32;;;;;;;;;;4929743;29;20259;-69
2023/11/25 10:15:46;;;;;;;13.55;5.40;;;;;;;;;;4928108;29;20213;-70
2023/11/25 10:18:14;;;;;;;7.97;4.70;;;;;;;;;;4919389;29;20209;-69
2023/11/25 10:20:42;;;;;;;12.27;3.00;;;;;;;;;;4935835;29;20208;-70
2023/11/25 10:23:12;;;;;;;9.30;4.38;;;;;;;;;;4936588;29;20287;-70
2023/11/25 10:25:41;;;;;;;10.90;3.10;;;;;;;;;;4936029;29;20211;-70
2023/11/25 10:28:12;;;;;;;12.63;4.38;;;;;;;;;;4935171;29;20209;-70
2023/11/25 10:30:40;;;;;;;12.98;4.10;;;;;;;;;;4935382;29;20250;-70
2023/11/25 10:33:08;;;;;;;9.13;4.00;;;;;;;;;;4950732;29;20266;-70
2023/11/25 10:35:37;;;;;;;11.90;3.83;;;;;;;;;;4948820;29;20229;-68
2023/11/25 10:38:06;;;;;;;19.30;5.13;;;;;;;;;;4930520;29;20205;-69
2023/11/25 10:40:35;;;;;;;10.43;4.18;;;;;;;;;;4939540;29;20578;-69
2023/11/25 10:43:04;;;;;;;13.93;4.20;;;;;;;;;;4936062;29;20565;-69
2023/11/25 10:45:32;;;;;;;5.72;2.78;;;;;;;;;;4938142;29;20239;-69
2023/11/25 10:48:02;;;;;;;13.20;3.75;;;;;;;;;;4938862;29;20205;-69
2023/11/25 10:50:31;;;;;;;6.97;3.13;;;;;;;;;;4934499;29;20205;-70
2023/11/25 10:53:00;;;;;;;16.17;3.95;;;;;;;;;;4934325;29;20713;-70
2023/11/25 10:55:29;;;;;;;7.50;3.08;;;;;;;;;;4941106;29;20224;-70
2023/11/25 10:58:00;;;;;;;8.52;3.35;;;;;;;;;;4943684;29;20211;-70
2023/11/25 11:00:29;;;;;;;6.05;3.28;;;;;;;;;;4918863;29;20562;-68
2023/11/25 11:02:59;;;;;;;7.03;3.35;;;;;;;;;;4933605;29;20209;-70
2023/11/25 11:05:33;;;;;;;13.90;3.50;;;;;;;;;;4934381;29;20209;-69
2023/11/25 11:08:02;;;;;;;20.10;4.65;;;;;;;;;;4935395;29;20196;-69
2023/11/25 11:10:33;;;;;;;16.85;4.40;;;;;;;;;;4926221;29;20219;-70
2023/11/25 11:13:04;;;;;;;10.93;3.58;;;;;;;;;;4938062;29;20243;-71
2023/11/25 11:15:35;;;;;;;9.95;3.13;;;;;;;;;;4945100;29;20301;-70
2023/11/25 11:18:13;;;;;;;8.90;2.90;;;;;;;;;;4952865;29;20643;-71
2023/11/25 11:20:43;;;;;;;9.45;3.05;;;;;;;;;;4944216;29;20640;-70
2023/11/25 11:23:11;;;;;;;12.20;4.07;;;;;;;;;;4942451;29;20207;-70
2023/11/25 11:25:43;;;;;;;10.88;3.15;;;;;;;;;;4935468;29;20285;-72
2023/11/25 11:28:18;;;;;;;8.60;3.90;;;;;;;;;;4935552;29;20188;-70
2023/11/25 11:30:53;;;;;;;8.35;3.83;;;;;;;;;;4935530;29;20199;-70
2023/11/25 11:33:21;;;;;;;12.50;3.88;;;;;;;;;;4936034;29;20224;-71
2023/11/25 11:35:50;;;;;;;9.15;3.67;;;;;;;;;;4934980;29;20767;-70
2023/11/25 11:38:24;;;;;;;16.17;3.58;;;;;;;;;;4939081;29;20218;-72
2023/11/25 11:40:54;;;;;;;20.30;3.90;;;;;;;;;;4929992;29;20203;-72
2023/11/25 11:43:24;;;;;;;12.65;3.38;;;;;;;;;;4936773;29;20232;-71
2023/11/25 11:45:52;;;;;;;11.88;3.10;;;;;;;;;;4945074;29;20192;-70
2023/11/25 11:48:22;;;;;;;9.50;3.05;;;;;;;;;;4938217;29;20200;-68
2023/11/25 11:50:51;;;;;;;11.20;3.33;;;;;;;;;;4937225;29;20240;-71
2023/11/25 11:53:19;;;;;;;12.48;3.67;;;;;;;;;;4930896;29;20746;-69
2023/11/25 11:55:52;;;;;;;5.97;3.45;;;;;;;;;;4942381;29;20228;-71
2023/11/25 11:58:21;;;;;;;15.02;5.68;;;;;;;;;;4914176;29;20208;-70
2023/11/25 12:00:54;;;;;;;17.25;3.65;;;;;;;;;;4931942;29;20216;-70
2023/11/25 12:03:23;;;;;;;9.60;3.33;;;;;;;;;;4933843;29;20232;-71
2023/11/25 12:05:52;;;;;;;3.10;2.70;;;;;;;;;;4933469;29;20660;-70
2023/11/25 12:08:20;;;;;;;10.35;2.70;;;;;;;;;;4934157;29;20209;-71
2023/11/25 12:10:48;;;;;;;7.95;3.30;;;;;;;;;;4932658;29;20204;-71
2023/11/25 12:13:25;;;;;;;7.13;3.47;;;;;;;;;;4920585;29;20244;-71
2023/11/25 12:15:59;;;;;;;7.95;3.60;;;;;;;;;;4926066;29;20227;-71
2023/11/25 12:18:27;;;;;;;8.90;3.15;;;;;;;;;;4942911;29;20280;-71
2023/11/25 12:20:56;;;;;;;12.85;3.50;;;;;;;;;;4935036;29;20213;-71
2023/11/25 12:23:26;;;;;;;7.72;3.17;;;;;;;;;;4934396;29;20260;-70
2023/11/25 12:25:54;;;;;;;7.90;3.28;;;;;;;;;;4934921;29;20204;-71
2023/11/25 12:28:23;;;;;;;5.85;2.72;;;;;;;;;;4934325;29;20227;-70
2023/11/25 12:30:52;;;;;;;11.30;3.22;;;;;;;;;;4935200;29;20286;-71
2023/11/25 12:33:22;;;;;;;8.43;3.80;;;;;;;;;;4934392;29;20219;-72
2023/11/25 12:35:50;;;;;;;11.10;3.42;;;;;;;;;;4938700;29;20224;-70
2023/11/25 12:38:19;;;;;;;11.40;5.60;;;;;;;;;;4941590;28;20199;-70
2023/11/25 12:40:47;;;;;;;4.88;3.10;;;;;;;;;;4939831;28;20227;-70
2023/11/25 12:43:16;;;;;;;11.40;3.33;;;;;;;;;;4950651;28;20200;-68
2023/11/25 12:45:46;;;;;;;12.50;3.05;;;;;;;;;;4941330;29;20199;-70
2023/11/25 12:48:20;;;;;;;8.63;3.85;;;;;;;;;;4929526;29;20212;-70
2023/11/25 12:51:04;;;;;;;6.78;2.60;;;;;;;;;;4934607;29;20192;-69
2023/11/25 12:53:34;;;;;;;12.30;2.97;;;;;;;;;;4934668;29;20197;-70
2023/11/25 12:56:01;;;;;;;11.10;3.05;;;;;;;;;;4955073;28;20230;-70
2023/11/25 12:58:30;;;;;;;9.63;2.70;;;;;;;;;;4956845;29;20222;-70
2023/11/25 13:00:59;;;;;;;10.05;7.80;;;;;;;;;;4956361;29;20195;-70
2023/11/25 13:03:28;;;;;;;4.72;4.25;;;;;;;;;;4955861;29;20258;-70
2023/11/25 13:06:00;;;;;;;7.75;3.28;;;;;;;;;;4953887;29;20200;-70
2023/11/25 13:08:32;;;;;;;9.93;3.10;;;;;;;;;;4947703;29;20211;-70
2023/11/25 13:11:03;;;;;;;11.85;3.60;;;;;;;;;;4938882;29;20212;-70
2023/11/25 13:13:32;;;;;;;5.22;3.30;;;;;;;;;;4944064;29;20228;-70
2023/11/25 13:16:01;;;;;;;8.48;3.60;;;;;;;;;;4945987;29;20225;-70
2023/11/25 13:18:29;;;;;;;7.70;2.88;;;;;;;;;;4929299;29;20241;-70
2023/11/25 13:21:01;;;;;;;9.27;3.20;;;;;;;;;;4948209;29;20266;-68
2023/11/25 13:23:30;;;;;;;8.55;3.97;;;;;;;;;;4938656;29;20204;-70
2023/11/25 13:25:59;;;;;;;7.35;3.97;;;;;;;;;;4937522;29;20201;-70
2023/11/25 13:28:27;;;;;;;8.50;3.92;;;;;;;;;;4925760;29;20614;-70
2023/11/25 13:30:55;;;;;;;7.65;3.22;;;;;;;;;;4936804;29;20204;-69
2023/11/25 13:33:23;;;;;;;8.43;3.30;;;;;;;;;;4934492;29;20660;-71
2023/11/25 13:35:52;;;;;;;3.05;2.75;;;;;;;;;;4928836;29;20220;-71
2023/11/25 13:38:20;;;;;;;7.90;3.10;;;;;;;;;;4926718;29;20204;-70
2023/11/25 13:40:51;;;;;;;5.60;3.20;;;;;;;;;;4946022;29;20204;-70
2023/11/25 13:43:20;;;;;;;5.82;3.25;;;;;;;;;;4947885;29;20213;-70
2023/11/25 13:45:48;;;;;;;6.22;2.78;;;;;;;;;;4954124;29;20212;-69
2023/11/25 13:48:17;;;;;;;4.03;2.97;;;;;;;;;;4954405;29;20220;-68
2023/11/25 13:50:46;;;;;;;6.85;3.10;;;;;;;;;;4944027;29;20271;-69
2023/11/25 13:53:16;;;;;;;2.70;2.50;;;;;;;;;;4951597;29;20205;-70
2023/11/25 13:55:44;;;;;;;7.20;3.50;;;;;;;;;;4932610;29;20203;-69
2023/11/25 13:58:15;;;;;;;5.30;3.90;;;;;;;;;;4938450;29;20211;-69
2023/11/25 14:00:44;;;;;;;7.88;3.63;;;;;;;;;;4952450;29;20203;-69
2023/11/25 14:03:13;;;;;;;3.90;2.80;;;;;;;;;;4955150;29;20613;-69
2023/11/25 14:05:42;;;;;;;5.40;3.75;;;;;;;;;;4952858;28;20204;-69
2023/11/25 14:08:11;;;;;;;5.35;3.40;;;;;;;;;;4955536;28;20274;-69
2023/11/25 14:10:42;;;;;;;4.50;2.40;;;;;;;;;;4947447;29;20208;-70
2023/11/25 14:13:10;;;;;;;4.40;2.67;;;;;;;;;;4937933;29;20228;-69
2023/11/25 14:15:40;;;;;;;4.15;2.38;;;;;;;;;;4949731;29;20208;-69
2023/11/25 14:18:10;;;;;;;8.45;2.40;;;;;;;;;;4970884;28;20282;-69
2023/11/25 14:20:38;;;;;;;2.67;2.35;;;;;;;;;;4955625;29;20214;-70
2023/11/25 14:23:06;;;;;;;4.97;2.60;;;;;;;;;;4945588;29;20239;-68
2023/11/25 14:25:35;;;;;;;4.05;2.17;;;;;;;;;;4943444;29;20209;-70
2023/11/25 14:28:03;;;;;;;2.78;2.45;;;;;;;;;;4936633;29;20207;-69
2023/11/25 14:30:32;;;;;;;4.45;2.92;;;;;;;;;;4936306;29;20213;-70
2023/11/25 14:33:05;;;;;;;4.80;3.28;;;;;;;;;;4927897;29;20214;-70
2023/11/25 14:35:33;;;;;;;6.85;2.60;;;;;;;;;;4939173;29;20742;-70
2023/11/25 14:38:03;;;;;;;3.70;2.05;;;;;;;;;;4940745;29;20224;-69
2023/11/25 14:40:35;;;;;;;2.83;2.08;;;;;;;;;;4948881;28;20746;-70
2023/11/25 14:43:05;;;;;;;3.10;2.50;;;;;;;;;;4944224;29;20197;-69
2023/11/25 14:45:34;;;;;;;4.45;2.75;;;;;;;;;;4923057;29;20213;-70
2023/11/25 14:48:04;;;;;;;3.50;2.45;;;;;;;;;;4954422;29;20199;-70
2023/11/25 14:50:37;;;;;;;5.18;1.88;;;;;;;;;;4955392;29;20563;-70
2023/11/25 14:53:05;;;;;;;2.42;2.22;;;;;;;;;;4948442;29;20193;-70